createdAt,value
2023-05-14T00:00:18.924Z,5.82
2023-05-14T00:02:48.054Z,6.10
2023-05-14T00:05:15.061Z,5.53
2023-05-14T00:07:41.622Z,6.18
2023-05-14T00:10:09.363Z,5.70
2023-05-14T00:12:35.945Z,5.32
2023-05-14T00:15:04.732Z,5.78
2023-05-14T00:17:33.747Z,6.35
2023-05-14T00:20:00.445Z,5.40
2023-05-14T00:22:27.001Z,5.40
2023-05-14T00:24:56.596Z,7.55
2023-05-14T00:27:24.536Z,8.48
2023-05-14T00:29:51.112Z,6.95
2023-05-14T00:32:19.352Z,7.18
2023-05-14T00:34:45.935Z,7.28
2023-05-14T00:37:16.712Z,7.28
2023-05-14T00:39:43.394Z,7.45
2023-05-14T00:42:09.991Z,6.80
2023-05-14T00:44:40.995Z,6.38
2023-05-14T00:47:15.522Z,7.13
2023-05-14T00:49:43.103Z,6.40
2023-05-14T00:52:11.598Z,6.70
2023-05-14T00:54:43.018Z,6.90
2023-05-14T00:57:11.700Z,6.97
2023-05-14T00:59:41.423Z,6.22
2023-05-14T01:02:11.011Z,7.43
2023-05-14T01:04:42.438Z,7.38
2023-05-14T01:07:23.681Z,7.00
2023-05-14T01:09:59.539Z,6.10
2023-05-14T01:12:35.110Z,6.32
2023-05-14T01:15:26.294Z,6.95
2023-05-14T01:18:04.578Z,6.90
2023-05-14T01:20:31.202Z,6.50
2023-05-14T01:22:57.753Z,7.70
2023-05-14T01:25:24.897Z,7.15
2023-05-14T01:28:11.121Z,6.85
2023-05-14T01:30:44.625Z,7.18
2023-05-14T01:33:19.193Z,7.38
2023-05-14T01:35:53.424Z,8.93
2023-05-14T01:38:21.379Z,7.43
2023-05-14T01:40:50.190Z,9.57
2023-05-14T01:43:19.848Z,10.68
2023-05-14T01:45:46.639Z,11.35
2023-05-14T01:48:16.366Z,11.90
2023-05-14T01:50:42.916Z,11.93
2023-05-14T01:53:11.531Z,11.38
2023-05-14T01:55:39.124Z,11.25
2023-05-14T01:58:08.238Z,10.45
2023-05-14T02:00:34.917Z,10.85
2023-05-14T02:03:06.482Z,10.63
2023-05-14T02:05:33.415Z,11.38
2023-05-14T02:07:59.964Z,10.18
2023-05-14T02:10:31.292Z,9.30
2023-05-14T02:12:58.006Z,9.50
2023-05-14T02:15:26.890Z,9.43
2023-05-14T02:17:53.736Z,10.70
2023-05-14T02:20:20.398Z,9.32
2023-05-14T02:22:48.401Z,9.05
2023-05-14T02:25:15.025Z,8.88
2023-05-14T02:27:45.701Z,9.35
2023-05-14T02:30:14.688Z,9.38
2023-05-14T02:32:43.540Z,8.65
2023-05-14T02:35:12.501Z,8.68
2023-05-14T02:37:41.298Z,7.75
2023-05-14T02:40:10.815Z,8.05
2023-05-14T02:42:37.407Z,8.02
2023-05-14T02:45:04.338Z,7.88
2023-05-14T02:47:31.923Z,7.70
2023-05-14T02:50:00.765Z,7.65
2023-05-14T02:52:29.996Z,7.55
2023-05-14T02:55:01.254Z,8.02
2023-05-14T02:57:27.985Z,8.50
2023-05-14T02:59:54.538Z,7.47
2023-05-14T03:02:23.721Z,8.02
2023-05-14T03:04:54.964Z,9.10
2023-05-14T03:07:24.339Z,8.80
2023-05-14T03:09:50.919Z,10.98
2023-05-14T03:12:24.838Z,11.85
2023-05-14T03:14:51.397Z,11.17
2023-05-14T03:17:20.617Z,11.00
2023-05-14T03:19:47.273Z,10.30
2023-05-14T03:22:13.965Z,10.40
2023-05-14T03:24:43.110Z,9.63
2023-05-14T03:27:12.110Z,10.48
2023-05-14T03:29:41.083Z,10.35
2023-05-14T03:32:07.826Z,10.15
2023-05-14T03:34:34.413Z,9.63
2023-05-14T03:37:01.139Z,10.15
2023-05-14T03:39:30.619Z,9.95
2023-05-14T03:41:59.751Z,9.73
2023-05-14T03:44:30.610Z,9.95
2023-05-14T03:46:59.711Z,10.43
2023-05-14T03:49:26.489Z,10.43
2023-05-14T03:51:55.293Z,9.77
2023-05-14T03:54:21.913Z,9.32
2023-05-14T03:56:48.527Z,9.70
2023-05-14T03:59:15.294Z,9.98
2023-05-14T04:01:45.919Z,9.75
2023-05-14T04:04:12.644Z,9.18
2023-05-14T04:06:43.942Z,8.57
2023-05-14T04:09:10.834Z,9.13
2023-05-14T04:11:39.668Z,7.60
2023-05-14T04:14:09.624Z,8.75
2023-05-14T04:16:36.354Z,9.02
2023-05-14T04:19:05.592Z,8.57
2023-05-14T04:21:35.104Z,9.45
2023-05-14T04:24:04.441Z,8.95
2023-05-14T04:26:31.057Z,8.98
2023-05-14T04:29:02.835Z,9.35
2023-05-14T04:31:33.203Z,9.15
2023-05-14T04:34:02.567Z,9.38
2023-05-14T04:36:36.450Z,8.80
2023-05-14T04:39:03.302Z,9.60
2023-05-14T04:41:34.623Z,9.25
2023-05-14T04:44:01.857Z,8.43
2023-05-14T04:46:30.945Z,9.40
2023-05-14T04:49:02.338Z,9.05
2023-05-14T04:51:31.579Z,8.80
2023-05-14T04:53:58.279Z,9.85
2023-05-14T04:56:28.420Z,8.23
2023-05-14T04:58:55.035Z,8.95
2023-05-14T05:01:25.024Z,8.98
2023-05-14T05:03:55.029Z,8.90
2023-05-14T05:06:21.722Z,9.32
2023-05-14T05:08:48.277Z,9.35
2023-05-14T05:11:14.857Z,9.90
2023-05-14T05:13:41.570Z,9.73
2023-05-14T05:16:08.247Z,10.15
2023-05-14T05:18:36.980Z,10.35
2023-05-14T05:21:03.697Z,11.65
2023-05-14T05:23:33.002Z,11.88
2023-05-14T05:26:02.452Z,10.90
2023-05-14T05:28:29.941Z,10.63
2023-05-14T05:30:56.741Z,11.02
2023-05-14T05:33:23.469Z,11.43
2023-05-14T05:35:55.866Z,13.30
2023-05-14T05:40:49.037Z,10.65
2023-05-14T05:43:17.692Z,11.57
2023-05-14T05:45:51.689Z,12.98
2023-05-14T05:48:18.287Z,14.88
2023-05-14T05:50:47.394Z,13.75
2023-05-14T05:53:16.065Z,13.90
2023-05-14T05:55:42.889Z,14.15
2023-05-14T05:58:15.565Z,14.25
2023-05-14T06:00:47.607Z,14.50
2023-05-14T06:03:14.455Z,14.52
2023-05-14T06:05:41.187Z,15.38
2023-05-14T06:08:10.080Z,15.48
2023-05-14T06:10:37.373Z,15.75
2023-05-14T06:13:08.693Z,16.25
2023-05-14T06:15:39.607Z,16.35
2023-05-14T06:18:11.708Z,16.23
2023-05-14T06:20:38.561Z,16.33
2023-05-14T06:23:08.240Z,15.23
2023-05-14T06:25:37.528Z,15.20
2023-05-14T06:28:04.253Z,15.63
2023-05-14T06:30:31.493Z,15.80
2023-05-14T06:32:58.053Z,15.70
2023-05-14T06:35:24.760Z,15.07
2023-05-14T06:37:51.406Z,15.90
2023-05-14T06:40:18.894Z,15.30
2023-05-14T06:42:45.560Z,15.30
2023-05-14T06:45:12.158Z,14.70
2023-05-14T06:47:38.789Z,14.80
2023-05-14T06:50:05.678Z,15.90
2023-05-14T06:52:32.253Z,16.90
2023-05-14T06:54:58.885Z,16.95
2023-05-14T06:57:25.584Z,18.10
2023-05-14T06:59:52.285Z,16.70
2023-05-14T07:02:18.871Z,16.88
2023-05-14T07:04:46.057Z,17.23
2023-05-14T07:07:15.519Z,17.33
2023-05-14T07:09:42.595Z,16.20
2023-05-14T07:12:09.315Z,17.27
2023-05-14T07:14:35.857Z,16.00
2023-05-14T07:17:02.512Z,16.40
2023-05-14T07:19:29.988Z,17.02
2023-05-14T07:21:57.786Z,15.82
2023-05-14T07:24:26.578Z,17.65
2023-05-14T07:26:54.235Z,16.88
2023-05-14T07:29:20.835Z,16.88
2023-05-14T07:31:47.476Z,16.83
2023-05-14T07:34:14.325Z,17.17
2023-05-14T07:36:41.069Z,18.17
2023-05-14T07:39:08.753Z,17.08
2023-05-14T07:41:35.318Z,17.00
2023-05-14T07:44:05.036Z,16.80
2023-05-14T07:46:31.601Z,16.95
2023-05-14T07:48:58.152Z,16.65
2023-05-14T07:51:28.025Z,16.60
2023-05-14T07:53:55.577Z,15.15
2023-05-14T07:56:22.951Z,16.88
2023-05-14T07:58:52.034Z,16.58
2023-05-14T08:01:19.909Z,17.20
2023-05-14T08:03:46.806Z,14.32
2023-05-14T08:06:15.764Z,16.42
2023-05-14T08:08:44.625Z,14.38
2023-05-14T08:11:11.635Z,13.20
2023-05-14T08:16:18.658Z,13.30
2023-05-14T08:18:50.152Z,13.77
2023-05-14T08:21:16.723Z,15.27
2023-05-14T08:23:46.153Z,14.80
2023-05-14T08:26:12.764Z,13.85
2023-05-14T08:28:39.326Z,13.38
2023-05-14T08:31:05.890Z,13.65
2023-05-14T08:33:32.499Z,14.20
2023-05-14T08:36:02.427Z,13.70
2023-05-14T08:38:29.017Z,13.63
2023-05-14T08:40:59.707Z,13.55
2023-05-14T08:43:30.914Z,14.45
2023-05-14T08:46:01.243Z,15.15
2023-05-14T08:48:33.209Z,14.52
2023-05-14T08:51:00.728Z,13.73
2023-05-14T08:53:30.137Z,13.02
2023-05-14T08:55:57.194Z,13.55
2023-05-14T08:58:26.591Z,13.82
2023-05-14T09:00:54.166Z,13.73
2023-05-14T09:03:21.985Z,14.38
2023-05-14T09:05:51.396Z,12.80
2023-05-14T09:08:18.016Z,13.32
2023-05-14T09:10:44.614Z,13.73
2023-05-14T09:13:11.323Z,12.40
2023-05-14T09:15:39.047Z,13.55
2023-05-14T09:18:06.314Z,13.85
2023-05-14T09:20:33.175Z,13.57
2023-05-14T09:23:02.623Z,12.82
2023-05-14T09:25:32.986Z,13.30
2023-05-14T09:27:59.838Z,13.38
2023-05-14T09:30:27.251Z,13.43
2023-05-14T09:32:54.931Z,12.55
2023-05-14T09:35:23.563Z,11.82
2023-05-14T09:37:54.936Z,12.77
2023-05-14T09:40:24.176Z,13.97
2023-05-14T09:42:51.459Z,13.15
2023-05-14T09:45:18.301Z,11.70
2023-05-14T09:47:45.278Z,13.15
2023-05-14T09:50:12.266Z,12.20
2023-05-14T09:52:40.106Z,11.63
2023-05-14T09:55:07.799Z,12.00
2023-05-14T09:57:35.270Z,11.65
2023-05-14T10:00:01.976Z,11.57
2023-05-14T10:02:40.894Z,11.38
2023-05-14T10:05:08.244Z,11.35
2023-05-14T10:07:48.284Z,11.07
2023-05-14T10:10:23.707Z,10.85
2023-05-14T10:12:58.017Z,10.55
2023-05-14T10:15:49.362Z,8.10
2023-05-14T10:18:22.745Z,6.43
2023-05-14T10:21:03.752Z,9.02
2023-05-14T10:23:30.857Z,6.95
2023-05-14T10:25:58.413Z,7.32
2023-05-14T10:28:25.356Z,7.03
2023-05-14T10:30:52.092Z,6.57
2023-05-14T10:33:18.875Z,6.70
2023-05-14T10:36:01.919Z,6.25
2023-05-14T10:38:29.222Z,6.30
2023-05-14T10:41:03.467Z,6.72
2023-05-14T10:43:31.305Z,7.25
2023-05-14T10:45:59.676Z,6.22
2023-05-14T10:48:26.825Z,6.07
2023-05-14T10:50:55.118Z,5.80
2023-05-14T10:53:34.584Z,5.97
2023-05-14T10:56:07.036Z,6.35
2023-05-14T10:58:46.204Z,6.82
2023-05-14T11:01:13.806Z,8.88
2023-05-14T11:03:46.913Z,7.63
2023-05-14T11:06:15.816Z,7.95
2023-05-14T11:08:46.258Z,8.10
2023-05-14T11:11:12.994Z,8.45
2023-05-14T11:13:40.884Z,8.18
2023-05-14T11:16:22.408Z,7.55
2023-05-14T11:19:11.239Z,8.23
2023-05-14T11:21:43.498Z,4.70
2023-05-14T11:24:10.144Z,4.57
2023-05-14T11:26:37.953Z,4.32
2023-05-14T11:29:05.077Z,4.47
2023-05-14T11:31:35.491Z,5.57
2023-05-14T11:34:04.489Z,5.70
2023-05-14T11:36:31.375Z,5.22
2023-05-14T11:39:02.499Z,5.70
2023-05-14T11:41:30.889Z,7.25
2023-05-14T11:43:58.446Z,5.95
2023-05-14T11:46:26.047Z,5.35
2023-05-14T11:48:54.584Z,5.40
2023-05-14T11:51:23.670Z,5.35
2023-05-14T11:53:50.245Z,6.07
2023-05-14T11:56:16.905Z,5.20
2023-05-14T11:58:48.580Z,4.57
2023-05-14T12:01:17.887Z,3.95
2023-05-14T12:03:44.637Z,4.32
2023-05-14T12:06:11.391Z,3.40
2023-05-14T12:08:37.987Z,5.15
2023-05-14T12:11:04.625Z,4.60
2023-05-14T12:13:32.394Z,4.90
2023-05-14T12:16:01.896Z,4.72
2023-05-14T12:18:32.541Z,4.68
2023-05-14T12:21:03.902Z,3.50
2023-05-14T12:23:31.320Z,3.13
2023-05-14T12:26:09.035Z,3.20
2023-05-14T12:28:38.774Z,3.38
2023-05-14T12:31:07.695Z,3.15
2023-05-14T12:33:34.286Z,3.72
2023-05-14T12:38:33.298Z,3.58
2023-05-14T12:40:59.830Z,3.28
2023-05-14T12:43:31.335Z,3.00
2023-05-14T12:45:57.961Z,3.58
2023-05-14T12:48:24.825Z,3.40
2023-05-14T12:50:51.694Z,3.22
2023-05-14T12:53:18.261Z,3.88
2023-05-14T12:55:47.112Z,3.45
2023-05-14T12:58:16.693Z,4.13
2023-05-14T13:00:43.255Z,4.00
2023-05-14T13:03:09.920Z,3.90
2023-05-14T13:05:37.065Z,3.53
2023-05-14T13:08:03.929Z,3.38
2023-05-14T13:10:30.714Z,3.42
2023-05-14T13:12:58.028Z,3.50
2023-05-14T13:15:24.869Z,3.40
2023-05-14T13:17:51.717Z,3.10
2023-05-14T13:20:18.354Z,3.50
2023-05-14T13:22:44.993Z,3.30
2023-05-14T13:25:11.598Z,3.55
2023-05-14T13:27:38.169Z,3.25
2023-05-14T13:30:05.207Z,3.00
2023-05-14T13:32:31.755Z,3.00
2023-05-14T13:34:58.377Z,3.25
2023-05-14T13:37:25.681Z,2.90
2023-05-14T13:39:52.243Z,2.70
2023-05-14T13:42:18.853Z,3.30
2023-05-14T13:44:45.578Z,2.70
2023-05-14T13:47:12.205Z,2.63
2023-05-14T13:49:38.790Z,2.65
2023-05-14T13:52:05.981Z,2.85
2023-05-14T13:54:32.539Z,2.80
2023-05-14T13:56:59.163Z,2.58
2023-05-14T13:59:25.917Z,2.55
2023-05-14T14:01:52.564Z,2.70
2023-05-14T14:04:19.834Z,2.40
2023-05-14T14:06:46.479Z,2.42
2023-05-14T14:09:13.664Z,2.30
2023-05-14T14:11:41.267Z,2.58
2023-05-14T14:14:07.838Z,2.55
2023-05-14T14:16:34.461Z,2.15
2023-05-14T14:19:01.109Z,3.05
2023-05-14T14:21:27.737Z,3.05
2023-05-14T14:23:54.436Z,3.00
2023-05-14T14:26:21.237Z,2.65
2023-05-14T14:28:47.846Z,2.78
2023-05-14T14:31:14.571Z,2.30
2023-05-14T14:33:41.120Z,3.05
2023-05-14T14:36:07.813Z,2.70
2023-05-14T14:38:34.425Z,2.78
2023-05-14T14:41:03.085Z,2.50
2023-05-14T14:43:29.681Z,2.72
2023-05-14T14:45:58.645Z,2.80
2023-05-14T14:48:32.894Z,2.58
2023-05-14T14:51:00.902Z,2.55
2023-05-14T14:53:27.479Z,2.58
2023-05-14T14:55:54.078Z,2.65
2023-05-14T14:58:21.128Z,2.60
2023-05-14T15:00:49.932Z,3.13
2023-05-14T15:03:18.050Z,2.67
2023-05-14T15:05:44.945Z,2.80
2023-05-14T15:08:11.694Z,2.88
2023-05-14T15:10:38.616Z,2.50
2023-05-14T15:13:06.274Z,2.67
2023-05-14T15:15:33.617Z,2.40
2023-05-14T15:18:00.554Z,2.55
2023-05-14T15:20:27.305Z,2.08
2023-05-14T15:22:54.318Z,2.40
2023-05-14T15:25:22.146Z,2.30
2023-05-14T15:27:49.196Z,2.22
2023-05-14T15:30:18.046Z,2.17
2023-05-14T15:32:47.508Z,2.30
2023-05-14T15:35:14.206Z,2.10
2023-05-14T15:37:42.663Z,2.20
2023-05-14T15:40:10.338Z,2.47
2023-05-14T15:42:38.391Z,2.13
2023-05-14T15:45:05.630Z,2.33
2023-05-14T15:47:32.354Z,2.30
2023-05-14T15:49:59.828Z,2.33
2023-05-14T15:52:26.582Z,2.50
2023-05-14T15:54:54.160Z,2.28
2023-05-14T15:57:20.821Z,2.20
2023-05-14T15:59:47.550Z,2.10
2023-05-14T16:02:15.222Z,2.10
2023-05-14T16:04:41.810Z,1.90
2023-05-14T16:07:14.795Z,2.38
2023-05-14T16:09:42.031Z,1.95
2023-05-14T16:12:08.992Z,2.40
2023-05-14T16:14:35.888Z,2.75
2023-05-14T16:17:02.565Z,2.30
2023-05-14T16:19:29.232Z,2.53
2023-05-14T16:21:55.988Z,2.45
2023-05-14T16:24:22.547Z,2.38
2023-05-14T16:26:49.321Z,2.60
2023-05-14T16:29:15.929Z,2.50
2023-05-14T16:31:42.649Z,2.47
2023-05-14T16:34:09.297Z,2.85
2023-05-14T16:36:36.007Z,2.40
2023-05-14T16:41:32.167Z,2.20
2023-05-14T16:44:00.816Z,2.38
2023-05-14T16:46:31.790Z,2.42
2023-05-14T16:49:02.126Z,2.30
2023-05-14T16:51:31.596Z,2.30
2023-05-14T16:53:58.214Z,2.33
2023-05-14T16:56:24.793Z,2.63
2023-05-14T16:58:51.457Z,2.45
2023-05-14T17:01:19.341Z,2.72
2023-05-14T17:03:46.603Z,2.72
2023-05-14T17:06:15.903Z,2.83
2023-05-14T17:08:44.674Z,2.72
2023-05-14T17:11:11.320Z,2.20
2023-05-14T17:13:40.154Z,2.58
2023-05-14T17:16:06.800Z,2.60
2023-05-14T17:18:34.711Z,2.30
2023-05-14T17:21:06.897Z,2.78
2023-05-14T17:23:35.953Z,3.03
2023-05-14T17:26:04.767Z,2.55
2023-05-14T17:28:32.685Z,2.50
2023-05-14T17:31:01.311Z,2.40
2023-05-14T17:33:28.128Z,3.15
2023-05-14T17:36:02.454Z,3.03
2023-05-14T17:38:31.245Z,2.70
2023-05-14T17:40:57.957Z,3.05
2023-05-14T17:43:25.055Z,2.65
2023-05-14T17:45:54.464Z,2.95
2023-05-14T17:48:26.734Z,3.38
2023-05-14T17:50:55.553Z,2.85
2023-05-14T17:53:22.155Z,2.72
2023-05-14T17:55:53.421Z,2.72
2023-05-14T17:58:21.679Z,3.30
2023-05-14T18:00:48.339Z,3.38
2023-05-14T18:03:21.558Z,3.40
2023-05-14T18:05:51.048Z,3.13
2023-05-14T18:08:22.311Z,3.72
2023-05-14T18:10:49.084Z,3.10
2023-05-14T18:13:15.641Z,3.70
2023-05-14T18:15:42.592Z,3.15
2023-05-14T18:18:09.288Z,3.55
2023-05-14T18:20:38.305Z,3.45
2023-05-14T18:23:05.149Z,3.80
2023-05-14T18:25:31.873Z,3.63
2023-05-14T18:27:59.105Z,4.20
2023-05-14T18:30:25.663Z,4.00
2023-05-14T18:32:52.312Z,3.80
2023-05-14T18:35:19.047Z,3.60
2023-05-14T18:37:45.907Z,3.78
2023-05-14T18:40:15.601Z,3.50
2023-05-14T18:42:43.597Z,4.47
2023-05-14T18:45:10.683Z,4.38
2023-05-14T18:47:37.666Z,4.32
2023-05-14T18:50:04.946Z,3.75
2023-05-14T18:52:33.998Z,3.70
2023-05-14T18:55:00.642Z,3.90
2023-05-14T18:57:29.182Z,4.28
2023-05-14T18:59:55.781Z,4.32
2023-05-14T19:02:22.793Z,3.85
2023-05-14T19:04:52.957Z,4.28
2023-05-14T19:07:20.799Z,3.83
2023-05-14T19:09:47.453Z,4.13
2023-05-14T19:12:14.493Z,4.00
2023-05-14T19:14:41.111Z,4.57
2023-05-14T19:17:07.715Z,4.25
2023-05-14T19:19:34.321Z,4.25
2023-05-14T19:22:00.885Z,4.75
2023-05-14T19:24:27.483Z,4.57
2023-05-14T19:26:54.204Z,4.25
2023-05-14T19:29:22.984Z,4.53
2023-05-14T19:31:49.808Z,4.97
2023-05-14T19:34:16.422Z,4.38
2023-05-14T19:36:42.994Z,4.68
2023-05-14T19:39:09.696Z,5.47
2023-05-14T19:41:36.273Z,4.55
2023-05-14T19:44:03.475Z,4.40
2023-05-14T19:46:30.168Z,3.92
2023-05-14T19:48:56.774Z,4.65
2023-05-14T19:51:25.503Z,4.38
2023-05-14T19:53:54.658Z,5.03
2023-05-14T19:56:21.545Z,4.75
2023-05-14T19:58:48.188Z,4.40
2023-05-14T20:01:17.260Z,4.22
2023-05-14T20:03:43.918Z,4.68
2023-05-14T20:06:10.538Z,4.93
2023-05-14T20:08:37.235Z,5.35
2023-05-14T20:11:03.919Z,5.38
2023-05-14T20:13:35.288Z,5.72
2023-05-14T20:16:02.071Z,5.67
2023-05-14T20:18:28.816Z,5.75
2023-05-14T20:20:57.705Z,6.05
2023-05-14T20:23:26.745Z,6.05
2023-05-14T20:25:55.550Z,6.13
2023-05-14T20:28:22.143Z,6.05
2023-05-14T20:30:48.770Z,6.65
2023-05-14T20:33:15.687Z,6.75
2023-05-14T20:35:44.598Z,6.22
2023-05-14T20:38:12.693Z,6.57
2023-05-14T20:40:39.633Z,7.03
2023-05-14T20:43:06.243Z,6.57
2023-05-14T20:45:32.857Z,7.50
2023-05-14T20:47:59.441Z,6.88
2023-05-14T20:50:27.674Z,7.18
2023-05-14T20:52:55.465Z,6.93
2023-05-14T20:55:22.162Z,7.55
2023-05-14T20:57:51.216Z,7.57
2023-05-14T21:00:20.563Z,7.20
2023-05-14T21:02:48.878Z,7.40
2023-05-14T21:05:17.113Z,8.70
2023-05-14T21:07:43.714Z,7.15
2023-05-14T21:10:10.644Z,7.75
2023-05-14T21:12:37.326Z,8.32
2023-05-14T21:15:04.331Z,7.30
2023-05-14T21:17:31.110Z,7.75
2023-05-14T21:20:00.748Z,7.95
2023-05-14T21:22:29.867Z,8.07
2023-05-14T21:24:58.719Z,7.43
2023-05-14T21:27:26.447Z,7.05
2023-05-14T21:29:53.055Z,8.07
2023-05-14T21:32:21.913Z,8.77
2023-05-14T21:34:53.377Z,7.88
2023-05-14T21:37:21.536Z,7.97
2023-05-14T21:39:48.516Z,7.43
2023-05-14T21:42:17.506Z,8.15
2023-05-14T21:44:44.117Z,8.55
2023-05-14T21:47:11.320Z,9.02
2023-05-14T21:49:38.031Z,8.93
2023-05-14T21:52:07.326Z,9.57
2023-05-14T21:54:33.907Z,9.93
2023-05-14T21:57:03.256Z,9.65
2023-05-14T21:59:29.838Z,8.95
2023-05-14T22:04:37.530Z,8.73
2023-05-14T22:07:04.392Z,10.15
2023-05-14T22:09:33.740Z,10.10
2023-05-14T22:12:06.156Z,10.87
2023-05-14T22:14:32.842Z,10.25
2023-05-14T22:17:04.567Z,9.68
2023-05-14T22:19:32.194Z,11.07
2023-05-14T22:21:58.790Z,10.63
2023-05-14T22:24:28.153Z,10.25
2023-05-14T22:26:57.195Z,9.27
2023-05-14T22:29:23.761Z,10.00
2023-05-14T22:31:52.745Z,10.10
2023-05-14T22:34:22.710Z,9.95
2023-05-14T22:36:54.355Z,10.13
2023-05-14T22:39:21.371Z,10.63
2023-05-14T22:41:55.388Z,10.93
2023-05-14T22:44:24.738Z,11.40
2023-05-14T22:46:51.493Z,12.00
2023-05-14T22:49:18.183Z,11.80
2023-05-14T22:51:49.359Z,11.82
2023-05-14T22:54:18.433Z,10.25
2023-05-14T22:56:47.404Z,11.88
2023-05-14T22:59:13.989Z,11.25
2023-05-14T23:01:49.102Z,11.32
2023-05-14T23:04:26.220Z,11.25
2023-05-14T23:06:52.855Z,13.25
2023-05-14T23:09:20.708Z,11.82
2023-05-14T23:11:52.037Z,11.32
2023-05-14T23:14:18.714Z,12.60
2023-05-14T23:16:47.926Z,11.57
2023-05-14T23:19:14.642Z,12.43
2023-05-14T23:21:42.588Z,12.50
2023-05-14T23:24:13.873Z,11.80
2023-05-14T23:26:47.813Z,12.88
2023-05-14T23:29:16.563Z,12.50
2023-05-14T23:31:43.557Z,12.48
2023-05-14T23:34:10.296Z,12.23
2023-05-14T23:36:37.537Z,11.90
2023-05-14T23:39:08.931Z,12.02
2023-05-14T23:41:35.558Z,11.43
2023-05-14T23:44:14.145Z,12.05
2023-05-14T23:46:45.723Z,12.07
2023-05-14T23:49:12.727Z,11.88
2023-05-14T23:51:43.675Z,11.05
2023-05-14T23:54:17.109Z,12.93
2023-05-14T23:56:45.813Z,11.10
2023-05-14T23:59:15.311Z,10.55
